sensor_id;sensor_type;location;lat;lon;timestamp;P1;durP1;ratioP1;P2;durP2;ratioP2
65567;SDS011;52211;50.154;8.682;2023-12-28T08:53:46;2.43;;;2.23;;
65567;SDS011;52211;50.154;8.682;2023-12-28T08:56:19;3.10;;;2.70;;
65567;SDS011;52211;50.154;8.682;2023-12-28T08:58:47;3.47;;;2.20;;
65567;SDS011;52211;50.154;8.682;2023-12-28T09:01:21;2.50;;;2.23;;
65567;SDS011;52211;50.154;8.682;2023-12-28T09:03:52;3.17;;;2.87;;
65567;SDS011;52211;50.154;8.682;2023-12-28T09:06:22;3.23;;;2.57;;
65567;SDS011;52211;50.154;8.682;2023-12-28T09:08:50;2.67;;;2.10;;
65567;SDS011;52211;50.154;8.682;2023-12-28T09:11:18;2.47;;;2.23;;
65567;SDS011;52211;50.154;8.682;2023-12-28T09:13:48;2.80;;;2.60;;
65567;SDS011;52211;50.154;8.682;2023-12-28T09:16:16;2.20;;;1.97;;
65567;SDS011;52211;50.154;8.682;2023-12-28T09:18:47;2.63;;;2.20;;
65567;SDS011;52211;50.154;8.682;2023-12-28T09:21:16;2.60;;;2.40;;
65567;SDS011;52211;50.154;8.682;2023-12-28T09:23:47;2.47;;;1.90;;
65567;SDS011;52211;50.154;8.682;2023-12-28T09:26:19;1.80;;;1.70;;
65567;SDS011;52211;50.154;8.682;2023-12-28T09:28:48;2.13;;;2.00;;
65567;SDS011;52211;50.154;8.682;2023-12-28T09:31:15;2.10;;;1.90;;
65567;SDS011;52211;50.154;8.682;2023-12-28T09:33:42;3.43;;;2.30;;
65567;SDS011;52211;50.154;8.682;2023-12-28T09:36:10;2.43;;;2.23;;
65567;SDS011;52211;50.154;8.682;2023-12-28T09:38:39;3.60;;;2.30;;
65567;SDS011;52211;50.154;8.682;2023-12-28T09:41:11;3.50;;;1.90;;
65567;SDS011;52211;50.154;8.682;2023-12-28T09:43:58;3.43;;;2.57;;
65567;SDS011;52211;50.154;8.682;2023-12-28T09:46:37;2.57;;;2.37;;
65567;SDS011;52211;50.154;8.682;2023-12-28T09:49:11;2.73;;;2.47;;
65567;SDS011;52211;50.154;8.682;2023-12-28T09:51:38;2.83;;;2.07;;
65567;SDS011;52211;50.154;8.682;2023-12-28T09:54:05;3.57;;;1.90;;
65567;SDS011;52211;50.154;8.682;2023-12-28T09:56:33;3.90;;;2.37;;
65567;SDS011;52211;50.154;8.682;2023-12-28T09:59:01;3.00;;;1.97;;
65567;SDS011;52211;50.154;8.682;2023-12-28T10:01:37;2.57;;;2.37;;
65567;SDS011;52211;50.154;8.682;2023-12-28T10:04:11;3.40;;;1.80;;
65567;SDS011;52211;50.154;8.682;2023-12-28T10:06:39;3.17;;;2.20;;
65567;SDS011;52211;50.154;8.682;2023-12-28T10:09:08;3.63;;;2.10;;
65567;SDS011;52211;50.154;8.682;2023-12-28T10:11:35;3.47;;;2.30;;
65567;SDS011;52211;50.154;8.682;2023-12-28T10:14:09;3.10;;;1.80;;
65567;SDS011;52211;50.154;8.682;2023-12-28T10:16:39;3.20;;;2.60;;
65567;SDS011;52211;50.154;8.682;2023-12-28T10:19:10;1.80;;;1.70;;
65567;SDS011;52211;50.154;8.682;2023-12-28T10:21:39;1.83;;;1.73;;
65567;SDS011;52211;50.154;8.682;2023-12-28T10:24:10;2.33;;;2.13;;
65567;SDS011;52211;50.154;8.682;2023-12-28T10:26:40;4.17;;;1.90;;
65567;SDS011;52211;50.154;8.682;2023-12-28T10:29:07;3.93;;;2.50;;
65567;SDS011;52211;50.154;8.682;2023-12-28T10:31:37;2.80;;;2.00;;
65567;SDS011;52211;50.154;8.682;2023-12-28T10:34:08;2.57;;;1.80;;
65567;SDS011;52211;50.154;8.682;2023-12-28T10:36:36;4.67;;;2.30;;
65567;SDS011;52211;50.154;8.682;2023-12-28T10:39:09;4.13;;;2.23;;
65567;SDS011;52211;50.154;8.682;2023-12-28T10:41:45;2.00;;;1.90;;
65567;SDS011;52211;50.154;8.682;2023-12-28T10:44:19;3.10;;;1.93;;
65567;SDS011;52211;50.154;8.682;2023-12-28T10:46:51;2.20;;;2.00;;
65567;SDS011;52211;50.154;8.682;2023-12-28T10:49:27;4.20;;;2.13;;
65567;SDS011;52211;50.154;8.682;2023-12-28T10:52:04;1.70;;;1.60;;
65567;SDS011;52211;50.154;8.682;2023-12-28T11:03:02;1.87;;;1.77;;
65567;SDS011;52211;50.154;8.682;2023-12-28T11:05:32;2.07;;;1.67;;
65567;SDS011;52211;50.154;8.682;2023-12-28T11:08:01;2.03;;;1.83;;
65567;SDS011;52211;50.154;8.682;2023-12-28T11:10:32;2.40;;;1.87;;
65567;SDS011;52211;50.154;8.682;2023-12-28T11:13:01;2.00;;;1.90;;
65567;SDS011;52211;50.154;8.682;2023-12-28T11:15:31;2.00;;;1.70;;
65567;SDS011;52211;50.154;8.682;2023-12-28T11:18:01;2.27;;;2.07;;
65567;SDS011;52211;50.154;8.682;2023-12-28T11:20:33;2.00;;;1.80;;
65567;SDS011;52211;50.154;8.682;2023-12-28T11:23:04;1.50;;;1.40;;
65567;SDS011;52211;50.154;8.682;2023-12-28T11:25:36;2.53;;;2.17;;
65567;SDS011;52211;50.154;8.682;2023-12-28T11:28:09;2.33;;;1.57;;
65567;SDS011;52211;50.154;8.682;2023-12-28T11:30:38;2.87;;;2.13;;
65567;SDS011;52211;50.154;8.682;2023-12-28T11:33:07;2.03;;;1.90;;
65567;SDS011;52211;50.154;8.682;2023-12-28T11:35:39;2.40;;;1.77;;
65567;SDS011;52211;50.154;8.682;2023-12-28T11:38:08;2.73;;;2.40;;
65567;SDS011;52211;50.154;8.682;2023-12-28T11:40:49;2.13;;;1.63;;
65567;SDS011;52211;50.154;8.682;2023-12-28T11:43:20;3.40;;;1.83;;
65567;SDS011;52211;50.154;8.682;2023-12-28T11:45:54;2.47;;;2.00;;
65567;SDS011;52211;50.154;8.682;2023-12-28T11:48:25;4.20;;;2.03;;
65567;SDS011;52211;50.154;8.682;2023-12-28T11:51:00;4.77;;;2.37;;
65567;SDS011;52211;50.154;8.682;2023-12-28T11:53:32;2.17;;;1.30;;
65567;SDS011;52211;50.154;8.682;2023-12-28T11:56:02;2.70;;;1.67;;
65567;SDS011;52211;50.154;8.682;2023-12-28T11:58:29;2.60;;;2.13;;
65567;SDS011;52211;50.154;8.682;2023-12-28T12:00:56;2.70;;;1.70;;
65567;SDS011;52211;50.154;8.682;2023-12-28T12:03:24;2.10;;;1.90;;
65567;SDS011;52211;50.154;8.682;2023-12-28T12:05:53;2.43;;;2.03;;
65567;SDS011;52211;50.154;8.682;2023-12-28T12:08:25;2.17;;;1.90;;
65567;SDS011;52211;50.154;8.682;2023-12-28T12:11:07;1.97;;;1.73;;
65567;SDS011;52211;50.154;8.682;2023-12-28T12:13:34;1.50;;;1.40;;
65567;SDS011;52211;50.154;8.682;2023-12-28T12:16:02;2.30;;;1.70;;
65567;SDS011;52211;50.154;8.682;2023-12-28T12:18:38;2.37;;;1.73;;
65567;SDS011;52211;50.154;8.682;2023-12-28T12:21:06;1.67;;;1.57;;
65567;SDS011;52211;50.154;8.682;2023-12-28T12:23:37;4.30;;;1.60;;
65567;SDS011;52211;50.154;8.682;2023-12-28T12:26:07;2.07;;;1.70;;
65567;SDS011;52211;50.154;8.682;2023-12-28T12:28:34;1.30;;;1.20;;
65567;SDS011;52211;50.154;8.682;2023-12-28T12:31:09;1.23;;;1.00;;
65567;SDS011;52211;50.154;8.682;2023-12-28T12:33:37;1.60;;;1.30;;
65567;SDS011;52211;50.154;8.682;2023-12-28T12:36:11;1.20;;;1.10;;
65567;SDS011;52211;50.154;8.682;2023-12-28T12:38:38;1.73;;;1.23;;
65567;SDS011;52211;50.154;8.682;2023-12-28T12:41:11;2.33;;;1.50;;
65567;SDS011;52211;50.154;8.682;2023-12-28T12:43:40;2.07;;;1.27;;
65567;SDS011;52211;50.154;8.682;2023-12-28T12:46:10;1.27;;;1.17;;
65567;SDS011;52211;50.154;8.682;2023-12-28T12:48:42;1.50;;;1.40;;
65567;SDS011;52211;50.154;8.682;2023-12-28T12:51:22;1.27;;;1.27;;
65567;SDS011;52211;50.154;8.682;2023-12-28T12:53:55;3.73;;;1.20;;
65567;SDS011;52211;50.154;8.682;2023-12-28T12:56:31;1.40;;;1.30;;
65567;SDS011;52211;50.154;8.682;2023-12-28T12:59:03;1.87;;;1.47;;
65567;SDS011;52211;50.154;8.682;2023-12-28T13:01:34;1.30;;;1.20;;
65567;SDS011;52211;50.154;8.682;2023-12-28T13:04:01;1.40;;;1.30;;
65567;SDS011;52211;50.154;8.682;2023-12-28T13:06:28;1.47;;;1.20;;
65567;SDS011;52211;50.154;8.682;2023-12-28T13:08:55;2.13;;;1.70;;
65567;SDS011;52211;50.154;8.682;2023-12-28T13:11:22;1.40;;;1.30;;
65567;SDS011;52211;50.154;8.682;2023-12-28T13:13:52;1.63;;;1.50;;
65567;SDS011;52211;50.154;8.682;2023-12-28T13:16:21;1.67;;;1.57;;
65567;SDS011;52211;50.154;8.682;2023-12-28T13:18:49;1.40;;;1.30;;
65567;SDS011;52211;50.154;8.682;2023-12-28T13:21:16;1.83;;;1.57;;
65567;SDS011;52211;50.154;8.682;2023-12-28T13:23:43;1.60;;;1.20;;
65567;SDS011;52211;50.154;8.682;2023-12-28T13:26:12;1.13;;;1.13;;
65567;SDS011;52211;50.154;8.682;2023-12-28T13:28:44;1.40;;;1.30;;
65567;SDS011;52211;50.154;8.682;2023-12-28T13:31:14;1.90;;;1.70;;
65567;SDS011;52211;50.154;8.682;2023-12-28T13:33:41;2.27;;;1.60;;
65567;SDS011;52211;50.154;8.682;2023-12-28T13:36:10;2.40;;;2.00;;
65567;SDS011;52211;50.154;8.682;2023-12-28T13:38:37;1.33;;;1.23;;
65567;SDS011;52211;50.154;8.682;2023-12-28T13:41:06;1.87;;;1.60;;
65567;SDS011;52211;50.154;8.682;2023-12-28T13:43:36;1.47;;;1.37;;
65567;SDS011;52211;50.154;8.682;2023-12-28T13:46:03;2.17;;;1.90;;
65567;SDS011;52211;50.154;8.682;2023-12-28T13:48:33;1.70;;;1.60;;
65567;SDS011;52211;50.154;8.682;2023-12-28T13:51:01;1.87;;;1.60;;
65567;SDS011;52211;50.154;8.682;2023-12-28T13:53:31;3.27;;;1.80;;
65567;SDS011;52211;50.154;8.682;2023-12-28T13:56:08;4.83;;;1.87;;
65567;SDS011;52211;50.154;8.682;2023-12-28T13:58:35;1.87;;;1.57;;
65567;SDS011;52211;50.154;8.682;2023-12-28T14:01:02;2.23;;;1.60;;
65567;SDS011;52211;50.154;8.682;2023-12-28T14:03:35;3.10;;;1.40;;
65567;SDS011;52211;50.154;8.682;2023-12-28T14:06:02;1.93;;;1.77;;
65567;SDS011;52211;50.154;8.682;2023-12-28T14:08:29;3.53;;;1.87;;
65567;SDS011;52211;50.154;8.682;2023-12-28T14:11:00;2.00;;;1.90;;
65567;SDS011;52211;50.154;8.682;2023-12-28T14:13:27;2.23;;;1.50;;
65567;SDS011;52211;50.154;8.682;2023-12-28T14:15:57;2.77;;;1.73;;
65567;SDS011;52211;50.154;8.682;2023-12-28T14:18:24;3.17;;;1.83;;
65567;SDS011;52211;50.154;8.682;2023-12-28T14:20:59;1.83;;;1.63;;
65567;SDS011;52211;50.154;8.682;2023-12-28T14:23:26;1.37;;;1.27;;
65567;SDS011;52211;50.154;8.682;2023-12-28T14:25:53;2.43;;;1.53;;
65567;SDS011;52211;50.154;8.682;2023-12-28T14:28:23;1.53;;;1.40;;
65567;SDS011;52211;50.154;8.682;2023-12-28T14:30:53;1.37;;;1.27;;
65567;SDS011;52211;50.154;8.682;2023-12-28T14:33:20;1.00;;;1.00;;
65567;SDS011;52211;50.154;8.682;2023-12-28T14:35:48;2.20;;;1.47;;
65567;SDS011;52211;50.154;8.682;2023-12-28T14:38:15;1.50;;;1.40;;
65567;SDS011;52211;50.154;8.682;2023-12-28T14:40:42;1.37;;;1.10;;
65567;SDS011;52211;50.154;8.682;2023-12-28T14:43:12;1.00;;;1.00;;
65567;SDS011;52211;50.154;8.682;2023-12-28T14:45:41;1.10;;;1.00;;
65567;SDS011;52211;50.154;8.682;2023-12-28T14:48:08;1.00;;;1.00;;
65567;SDS011;52211;50.154;8.682;2023-12-28T14:50:35;1.73;;;1.17;;
65567;SDS011;52211;50.154;8.682;2023-12-28T14:53:06;1.67;;;1.20;;
65567;SDS011;52211;50.154;8.682;2023-12-28T14:55:37;1.47;;;1.37;;
65567;SDS011;52211;50.154;8.682;2023-12-28T14:58:09;1.23;;;1.07;;
65567;SDS011;52211;50.154;8.682;2023-12-28T15:00:38;1.40;;;1.30;;
65567;SDS011;52211;50.154;8.682;2023-12-28T15:03:05;1.33;;;1.07;;
65567;SDS011;52211;50.154;8.682;2023-12-28T15:05:32;1.20;;;1.20;;
65567;SDS011;52211;50.154;8.682;2023-12-28T15:07:59;2.23;;;1.60;;
65567;SDS011;52211;50.154;8.682;2023-12-28T15:10:26;1.40;;;1.10;;
65567;SDS011;52211;50.154;8.682;2023-12-28T15:12:54;1.40;;;1.30;;
65567;SDS011;52211;50.154;8.682;2023-12-28T15:15:21;1.83;;;1.60;;
65567;SDS011;52211;50.154;8.682;2023-12-28T15:17:49;1.40;;;1.30;;
65567;SDS011;52211;50.154;8.682;2023-12-28T15:20:21;1.47;;;1.37;;
65567;SDS011;52211;50.154;8.682;2023-12-28T15:22:54;3.37;;;1.60;;
65567;SDS011;52211;50.154;8.682;2023-12-28T15:25:25;1.53;;;1.20;;
65567;SDS011;52211;50.154;8.682;2023-12-28T15:27:54;1.50;;;1.40;;
65567;SDS011;52211;50.154;8.682;2023-12-28T15:30:29;1.40;;;1.30;;
65567;SDS011;52211;50.154;8.682;2023-12-28T15:32:56;1.00;;;1.00;;
65567;SDS011;52211;50.154;8.682;2023-12-28T15:35:23;1.60;;;1.50;;
65567;SDS011;52211;50.154;8.682;2023-12-28T15:37:52;1.43;;;1.33;;
65567;SDS011;52211;50.154;8.682;2023-12-28T15:40:23;1.40;;;1.30;;
65567;SDS011;52211;50.154;8.682;2023-12-28T15:42:50;1.60;;;1.40;;
65567;SDS011;52211;50.154;8.682;2023-12-28T15:45:20;1.57;;;1.47;;
65567;SDS011;52211;50.154;8.682;2023-12-28T15:47:49;1.60;;;1.50;;
65567;SDS011;52211;50.154;8.682;2023-12-28T15:50:19;1.57;;;1.47;;
65567;SDS011;52211;50.154;8.682;2023-12-28T15:52:48;1.80;;;1.60;;
65567;SDS011;52211;50.154;8.682;2023-12-28T15:55:21;1.50;;;1.40;;
65567;SDS011;52211;50.154;8.682;2023-12-28T15:57:48;2.37;;;1.50;;
65567;SDS011;52211;50.154;8.682;2023-12-28T16:00:18;1.50;;;1.40;;
65567;SDS011;52211;50.154;8.682;2023-12-28T16:02:45;2.23;;;1.83;;
65567;SDS011;52211;50.154;8.682;2023-12-28T16:05:12;4.00;;;1.97;;
65567;SDS011;52211;50.154;8.682;2023-12-28T16:07:41;2.67;;;1.70;;
65567;SDS011;52211;50.154;8.682;2023-12-28T16:10:08;2.00;;;1.80;;
65567;SDS011;52211;50.154;8.682;2023-12-28T16:12:38;4.67;;;2.23;;
65567;SDS011;52211;50.154;8.682;2023-12-28T16:15:07;2.00;;;1.80;;
65567;SDS011;52211;50.154;8.682;2023-12-28T16:17:35;1.70;;;1.60;;
65567;SDS011;52211;50.154;8.682;2023-12-28T16:20:03;2.20;;;2.00;;
65567;SDS011;52211;50.154;8.682;2023-12-28T16:22:36;2.20;;;2.00;;
65567;SDS011;52211;50.154;8.682;2023-12-28T16:25:05;2.13;;;2.03;;
65567;SDS011;52211;50.154;8.682;2023-12-28T16:27:32;2.53;;;2.33;;
65567;SDS011;52211;50.154;8.682;2023-12-28T16:30:02;3.23;;;2.40;;
65567;SDS011;52211;50.154;8.682;2023-12-28T16:32:31;2.57;;;2.17;;
65567;SDS011;52211;50.154;8.682;2023-12-28T16:35:00;2.87;;;2.63;;
65567;SDS011;52211;50.154;8.682;2023-12-28T16:37:27;5.53;;;2.53;;
65567;SDS011;52211;50.154;8.682;2023-12-28T16:39:57;2.67;;;1.90;;
65567;SDS011;52211;50.154;8.682;2023-12-28T16:42:26;3.00;;;2.27;;
65567;SDS011;52211;50.154;8.682;2023-12-28T16:44:53;4.10;;;2.23;;
65567;SDS011;52211;50.154;8.682;2023-12-28T16:47:20;2.53;;;2.30;;
65567;SDS011;52211;50.154;8.682;2023-12-28T16:49:46;2.50;;;2.13;;
65567;SDS011;52211;50.154;8.682;2023-12-28T16:52:16;2.87;;;2.10;;
65567;SDS011;52211;50.154;8.682;2023-12-28T16:54:48;2.53;;;2.33;;
65567;SDS011;52211;50.154;8.682;2023-12-28T16:57:17;4.87;;;2.47;;
65567;SDS011;52211;50.154;8.682;2023-12-28T16:59:46;3.37;;;3.07;;
65567;SDS011;52211;50.154;8.682;2023-12-28T17:02:32;2.90;;;2.33;;
65567;SDS011;52211;50.154;8.682;2023-12-28T17:05:01;3.23;;;2.93;;
65567;SDS011;52211;50.154;8.682;2023-12-28T17:07:32;2.67;;;2.33;;
65567;SDS011;52211;50.154;8.682;2023-12-28T17:10:01;3.10;;;2.40;;
65567;SDS011;52211;50.154;8.682;2023-12-28T17:15:05;2.63;;;2.27;;
65567;SDS011;52211;50.154;8.682;2023-12-28T17:17:36;2.43;;;2.23;;
65567;SDS011;52211;50.154;8.682;2023-12-28T17:20:04;2.73;;;2.50;;
65567;SDS011;52211;50.154;8.682;2023-12-28T17:22:41;2.40;;;2.20;;
65567;SDS011;52211;50.154;8.682;2023-12-28T17:25:28;2.70;;;2.40;;
65567;SDS011;52211;50.154;8.682;2023-12-28T17:28:12;2.67;;;2.20;;
65567;SDS011;52211;50.154;8.682;2023-12-28T17:30:45;4.63;;;2.93;;
65567;SDS011;52211;50.154;8.682;2023-12-28T17:33:13;2.70;;;2.50;;
65567;SDS011;52211;50.154;8.682;2023-12-28T17:35:48;2.50;;;2.30;;
65567;SDS011;52211;50.154;8.682;2023-12-28T17:38:20;2.30;;;2.10;;
65567;SDS011;52211;50.154;8.682;2023-12-28T17:40:51;3.33;;;2.70;;
65567;SDS011;52211;50.154;8.682;2023-12-28T17:43:35;3.10;;;2.80;;
65567;SDS011;52211;50.154;8.682;2023-12-28T17:46:33;2.70;;;2.50;;
65567;SDS011;52211;50.154;8.682;2023-12-28T17:49:27;3.87;;;3.20;;
65567;SDS011;52211;50.154;8.682;2023-12-28T17:51:57;3.60;;;2.37;;
65567;SDS011;52211;50.154;8.682;2023-12-28T17:54:29;3.17;;;2.83;;
65567;SDS011;52211;50.154;8.682;2023-12-28T17:56:59;2.93;;;2.67;;
65567;SDS011;52211;50.154;8.682;2023-12-28T17:59:29;4.30;;;2.77;;
65567;SDS011;52211;50.154;8.682;2023-12-28T18:01:59;3.07;;;2.40;;
65567;SDS011;52211;50.154;8.682;2023-12-28T18:04:30;2.67;;;2.47;;
65567;SDS011;52211;50.154;8.682;2023-12-28T18:06:57;3.23;;;2.93;;
65567;SDS011;52211;50.154;8.682;2023-12-28T18:09:26;3.03;;;2.73;;
65567;SDS011;52211;50.154;8.682;2023-12-28T18:11:58;4.43;;;3.03;;
65567;SDS011;52211;50.154;8.682;2023-12-28T18:14:25;2.73;;;2.47;;
65567;SDS011;52211;50.154;8.682;2023-12-28T18:16:52;2.97;;;2.60;;
65567;SDS011;52211;50.154;8.682;2023-12-28T18:19:21;2.73;;;2.53;;
65567;SDS011;52211;50.154;8.682;2023-12-28T18:21:48;3.50;;;2.87;;
65567;SDS011;52211;50.154;8.682;2023-12-28T18:24:19;5.80;;;3.30;;
65567;SDS011;52211;50.154;8.682;2023-12-28T18:26:46;3.87;;;2.70;;
65567;SDS011;52211;50.154;8.682;2023-12-28T18:29:15;3.00;;;2.70;;
65567;SDS011;52211;50.154;8.682;2023-12-28T18:31:44;5.03;;;2.47;;
65567;SDS011;52211;50.154;8.682;2023-12-28T18:34:15;3.43;;;2.60;;
65567;SDS011;52211;50.154;8.682;2023-12-28T18:36:47;4.37;;;2.80;;
65567;SDS011;52211;50.154;8.682;2023-12-28T18:39:20;2.93;;;2.73;;
65567;SDS011;52211;50.154;8.682;2023-12-28T18:41:53;3.50;;;2.67;;
65567;SDS011;52211;50.154;8.682;2023-12-28T18:44:28;3.10;;;2.80;;
65567;SDS011;52211;50.154;8.682;2023-12-28T18:47:02;4.73;;;3.37;;
65567;SDS011;52211;50.154;8.682;2023-12-28T18:49:30;2.93;;;2.63;;
65567;SDS011;52211;50.154;8.682;2023-12-28T18:52:00;3.60;;;2.50;;
65567;SDS011;52211;50.154;8.682;2023-12-28T18:54:33;3.40;;;2.37;;
65567;SDS011;52211;50.154;8.682;2023-12-28T18:57:04;3.00;;;2.70;;
65567;SDS011;52211;50.154;8.682;2023-12-28T18:59:34;3.07;;;2.20;;
65567;SDS011;52211;50.154;8.682;2023-12-28T19:02:03;3.87;;;2.60;;
65567;SDS011;52211;50.154;8.682;2023-12-28T19:04:35;3.50;;;3.10;;
65567;SDS011;52211;50.154;8.682;2023-12-28T19:07:06;3.17;;;2.47;;
65567;SDS011;52211;50.154;8.682;2023-12-28T19:09:36;3.30;;;2.80;;
65567;SDS011;52211;50.154;8.682;2023-12-28T19:12:05;2.80;;;2.47;;
65567;SDS011;52211;50.154;8.682;2023-12-28T19:14:40;3.30;;;2.60;;
65567;SDS011;52211;50.154;8.682;2023-12-28T19:17:10;4.43;;;2.50;;
65567;SDS011;52211;50.154;8.682;2023-12-28T19:19:37;2.90;;;2.50;;
65567;SDS011;52211;50.154;8.682;2023-12-28T19:22:06;2.80;;;2.60;;
65567;SDS011;52211;50.154;8.682;2023-12-28T19:24:33;2.77;;;2.57;;
65567;SDS011;52211;50.154;8.682;2023-12-28T19:27:05;2.50;;;2.30;;
65567;SDS011;52211;50.154;8.682;2023-12-28T19:29:32;3.17;;;2.43;;
65567;SDS011;52211;50.154;8.682;2023-12-28T19:32:01;3.10;;;2.80;;
65567;SDS011;52211;50.154;8.682;2023-12-28T19:34:29;3.13;;;2.67;;
65567;SDS011;52211;50.154;8.682;2023-12-28T19:37:01;2.83;;;2.53;;
65567;SDS011;52211;50.154;8.682;2023-12-28T19:39:32;2.90;;;2.57;;
65567;SDS011;52211;50.154;8.682;2023-12-28T19:41:59;3.43;;;2.63;;
65567;SDS011;52211;50.154;8.682;2023-12-28T19:44:26;2.33;;;2.13;;
65567;SDS011;52211;50.154;8.682;2023-12-28T19:46:55;2.50;;;2.30;;
65567;SDS011;52211;50.154;8.682;2023-12-28T19:49:22;2.73;;;2.53;;
65567;SDS011;52211;50.154;8.682;2023-12-28T19:51:55;2.40;;;2.20;;
65567;SDS011;52211;50.154;8.682;2023-12-28T19:54:25;2.90;;;2.60;;
65567;SDS011;52211;50.154;8.682;2023-12-28T19:56:59;3.33;;;2.60;;
65567;SDS011;52211;50.154;8.682;2023-12-28T19:59:26;2.30;;;2.10;;
65567;SDS011;52211;50.154;8.682;2023-12-28T20:01:55;3.57;;;3.00;;
65567;SDS011;52211;50.154;8.682;2023-12-28T20:04:26;3.13;;;2.87;;
65567;SDS011;52211;50.154;8.682;2023-12-28T20:06:55;2.67;;;2.43;;
65567;SDS011;52211;50.154;8.682;2023-12-28T20:09:22;4.53;;;3.00;;
65567;SDS011;52211;50.154;8.682;2023-12-28T20:11:52;2.70;;;2.40;;
65567;SDS011;52211;50.154;8.682;2023-12-28T20:14:21;2.57;;;2.33;;
65567;SDS011;52211;50.154;8.682;2023-12-28T20:16:51;2.83;;;2.10;;
65567;SDS011;52211;50.154;8.682;2023-12-28T20:19:18;2.83;;;2.53;;
65567;SDS011;52211;50.154;8.682;2023-12-28T20:21:50;2.47;;;2.30;;
65567;SDS011;52211;50.154;8.682;2023-12-28T20:24:22;3.33;;;2.57;;
65567;SDS011;52211;50.154;8.682;2023-12-28T20:26:57;3.63;;;2.77;;
65567;SDS011;52211;50.154;8.682;2023-12-28T20:29:29;4.87;;;3.00;;
65567;SDS011;52211;50.154;8.682;2023-12-28T20:31:56;4.53;;;3.30;;
65567;SDS011;52211;50.154;8.682;2023-12-28T20:34:25;2.63;;;2.43;;
65567;SDS011;52211;50.154;8.682;2023-12-28T20:36:52;2.37;;;2.17;;
65567;SDS011;52211;50.154;8.682;2023-12-28T20:39:19;2.40;;;2.20;;
65567;SDS011;52211;50.154;8.682;2023-12-28T20:41:55;2.00;;;1.80;;
65567;SDS011;52211;50.154;8.682;2023-12-28T20:44:25;2.73;;;2.43;;
65567;SDS011;52211;50.154;8.682;2023-12-28T20:46:51;4.70;;;2.20;;
65567;SDS011;52211;50.154;8.682;2023-12-28T20:49:19;2.43;;;2.23;;
65567;SDS011;52211;50.154;8.682;2023-12-28T20:52:04;2.00;;;1.80;;
65567;SDS011;52211;50.154;8.682;2023-12-28T20:54:34;2.17;;;2.00;;
65567;SDS011;52211;50.154;8.682;2023-12-28T20:57:01;2.23;;;2.03;;
65567;SDS011;52211;50.154;8.682;2023-12-28T20:59:30;2.10;;;1.97;;
65567;SDS011;52211;50.154;8.682;2023-12-28T21:02:02;2.03;;;1.83;;
65567;SDS011;52211;50.154;8.682;2023-12-28T21:04:32;1.90;;;1.80;;
65567;SDS011;52211;50.154;8.682;2023-12-28T21:07:04;1.90;;;1.80;;
65567;SDS011;52211;50.154;8.682;2023-12-28T21:09:35;1.83;;;1.73;;
65567;SDS011;52211;50.154;8.682;2023-12-28T21:12:06;1.60;;;1.50;;
65567;SDS011;52211;50.154;8.682;2023-12-28T21:14:35;1.77;;;1.67;;
65567;SDS011;52211;50.154;8.682;2023-12-28T21:17:08;2.20;;;2.00;;
65567;SDS011;52211;50.154;8.682;2023-12-28T21:19:38;1.63;;;1.53;;
65567;SDS011;52211;50.154;8.682;2023-12-28T21:22:13;1.80;;;1.70;;
65567;SDS011;52211;50.154;8.682;2023-12-28T21:24:45;2.10;;;1.90;;
65567;SDS011;52211;50.154;8.682;2023-12-28T21:27:15;1.80;;;1.70;;
65567;SDS011;52211;50.154;8.682;2023-12-28T21:29:44;2.03;;;1.53;;
65567;SDS011;52211;50.154;8.682;2023-12-28T21:32:13;2.23;;;1.70;;
65567;SDS011;52211;50.154;8.682;2023-12-28T21:34:45;1.90;;;1.80;;
65567;SDS011;52211;50.154;8.682;2023-12-28T21:37:15;2.47;;;2.27;;
65567;SDS011;52211;50.154;8.682;2023-12-28T21:39:44;2.13;;;1.90;;
65567;SDS011;52211;50.154;8.682;2023-12-28T21:42:13;3.10;;;2.30;;
65567;SDS011;52211;50.154;8.682;2023-12-28T21:44:40;2.03;;;1.93;;
65567;SDS011;52211;50.154;8.682;2023-12-28T21:47:07;2.30;;;2.10;;
65567;SDS011;52211;50.154;8.682;2023-12-28T21:49:40;4.37;;;3.47;;
65567;SDS011;52211;50.154;8.682;2023-12-28T21:52:12;3.63;;;2.70;;
65567;SDS011;52211;50.154;8.682;2023-12-28T21:54:43;2.43;;;2.23;;
65567;SDS011;52211;50.154;8.682;2023-12-28T21:57:17;2.20;;;2.03;;
65567;SDS011;52211;50.154;8.682;2023-12-28T21:59:50;2.27;;;2.07;;
65567;SDS011;52211;50.154;8.682;2023-12-28T22:02:17;2.10;;;1.90;;
65567;SDS011;52211;50.154;8.682;2023-12-28T22:04:50;1.93;;;1.83;;
65567;SDS011;52211;50.154;8.682;2023-12-28T22:07:19;2.23;;;2.10;;
65567;SDS011;52211;50.154;8.682;2023-12-28T22:09:48;2.23;;;2.07;;
65567;SDS011;52211;50.154;8.682;2023-12-28T22:12:15;2.33;;;1.90;;
65567;SDS011;52211;50.154;8.682;2023-12-28T22:14:45;1.93;;;1.83;;
65567;SDS011;52211;50.154;8.682;2023-12-28T22:17:12;2.80;;;1.77;;
65567;SDS011;52211;50.154;8.682;2023-12-28T22:19:44;1.87;;;1.77;;
65567;SDS011;52211;50.154;8.682;2023-12-28T22:22:11;1.67;;;1.57;;
65567;SDS011;52211;50.154;8.682;2023-12-28T22:24:43;1.93;;;1.73;;
65567;SDS011;52211;50.154;8.682;2023-12-28T22:27:12;2.03;;;1.70;;
65567;SDS011;52211;50.154;8.682;2023-12-28T22:29:41;1.97;;;1.80;;
65567;SDS011;52211;50.154;8.682;2023-12-28T22:32:13;1.60;;;1.50;;
65567;SDS011;52211;50.154;8.682;2023-12-28T22:34:46;2.20;;;2.00;;
65567;SDS011;52211;50.154;8.682;2023-12-28T22:37:18;1.80;;;1.70;;
65567;SDS011;52211;50.154;8.682;2023-12-28T22:39:45;1.60;;;1.50;;
65567;SDS011;52211;50.154;8.682;2023-12-28T22:42:15;1.83;;;1.40;;
65567;SDS011;52211;50.154;8.682;2023-12-28T22:44:44;2.37;;;1.60;;
65567;SDS011;52211;50.154;8.682;2023-12-28T22:47:11;1.80;;;1.70;;
65567;SDS011;52211;50.154;8.682;2023-12-28T22:49:38;1.63;;;1.53;;
65567;SDS011;52211;50.154;8.682;2023-12-28T22:52:05;1.73;;;1.60;;
65567;SDS011;52211;50.154;8.682;2023-12-28T22:54:42;1.63;;;1.53;;
65567;SDS011;52211;50.154;8.682;2023-12-28T22:57:13;1.60;;;1.50;;
65567;SDS011;52211;50.154;8.682;2023-12-28T22:59:42;1.50;;;1.40;;
65567;SDS011;52211;50.154;8.682;2023-12-28T23:02:10;1.40;;;1.30;;
65567;SDS011;52211;50.154;8.682;2023-12-28T23:04:41;1.77;;;1.67;;
65567;SDS011;52211;50.154;8.682;2023-12-28T23:07:23;1.90;;;1.80;;
65567;SDS011;52211;50.154;8.682;2023-12-28T23:09:54;1.80;;;1.67;;
65567;SDS011;52211;50.154;8.682;2023-12-28T23:12:21;1.70;;;1.60;;
65567;SDS011;52211;50.154;8.682;2023-12-28T23:14:52;1.40;;;1.40;;
65567;SDS011;52211;50.154;8.682;2023-12-28T23:17:23;2.00;;;1.80;;
65567;SDS011;52211;50.154;8.682;2023-12-28T23:19:53;1.60;;;1.50;;
65567;SDS011;52211;50.154;8.682;2023-12-28T23:22:22;1.70;;;1.60;;
65567;SDS011;52211;50.154;8.682;2023-12-28T23:24:49;1.80;;;1.70;;
65567;SDS011;52211;50.154;8.682;2023-12-28T23:27:21;2.93;;;1.77;;
65567;SDS011;52211;50.154;8.682;2023-12-28T23:29:50;1.93;;;1.83;;
65567;SDS011;52211;50.154;8.682;2023-12-28T23:32:20;1.60;;;1.50;;
65567;SDS011;52211;50.154;8.682;2023-12-28T23:34:49;1.97;;;1.57;;
65567;SDS011;52211;50.154;8.682;2023-12-28T23:37:18;1.97;;;1.70;;
65567;SDS011;52211;50.154;8.682;2023-12-28T23:39:47;1.40;;;1.30;;
65567;SDS011;52211;50.154;8.682;2023-12-28T23:42:16;2.43;;;1.63;;
65567;SDS011;52211;50.154;8.682;2023-12-28T23:44:46;1.67;;;1.57;;
65567;SDS011;52211;50.154;8.682;2023-12-28T23:47:13;2.23;;;2.03;;
65567;SDS011;52211;50.154;8.682;2023-12-28T23:49:44;2.00;;;1.90;;
65567;SDS011;52211;50.154;8.682;2023-12-28T23:52:11;2.20;;;1.70;;
65567;SDS011;52211;50.154;8.682;2023-12-28T23:54:43;1.83;;;1.73;;
65567;SDS011;52211;50.154;8.682;2023-12-28T23:57:14;2.07;;;1.97;;
65567;SDS011;52211;50.154;8.682;2023-12-28T23:59:44;1.80;;;1.70;;
